Time;durP1;ratioP1;P1;durP2;ratioP2;P2;SDS_P1;SDS_P2;PMS_P1;PMS_P2;Temp;Humidity;BMP_temperature;BMP_pressure;BME280_temperature;BME280_humidity;BME280_pressure;Samples;Min_cycle;Max_cycle;Signal;HPM_P1;HPM_P2
2023/04/05 00:01:24;;;;;;;2.30;2.10;;;;;;;-0.38;97.27;100949.76;107685;1251;97721;-64
2023/04/05 00:03:55;;;;;;;3.50;2.30;;;;;;;-0.38;97.35;100953.81;107696;1250;98460;-63
2023/04/05 00:06:25;;;;;;;3.20;2.30;;;;;;;-0.38;97.26;100947.48;107716;1250;112200;-63
2023/04/05 00:08:59;;;;;;;3.70;2.30;;;;;;;-0.37;97.11;100945.85;107676;1250;110769;-62
2023/04/05 00:11:29;;;;;;;2.30;2.10;;;;;;;-0.37;97.26;100942.17;107732;1250;108029;-62
2023/04/05 00:13:59;;;;;;;2.60;2.10;;;;;;;-0.36;97.22;100940.36;107781;1253;97825;-63
2023/04/05 00:16:29;;;;;;;2.90;1.90;;;;;;;-0.35;97.06;100941.36;107699;1250;97916;-64
2023/04/05 00:18:59;;;;;;;2.70;2.30;;;;;;;-0.35;97.16;100943.65;107720;1250;110657;-64
2023/04/05 00:21:28;;;;;;;4.20;2.50;;;;;;;-0.35;97.22;100945.77;107724;1250;109048;-63
2023/04/05 00:23:57;;;;;;;2.50;2.30;;;;;;;-0.37;97.26;100942.17;107621;1250;108191;-62
2023/04/05 00:26:26;;;;;;;3.60;2.70;;;;;;;-0.39;97.43;100949.48;107655;1251;98606;-64
2023/04/05 00:28:56;;;;;;;1.70;1.60;;;;;;;-0.41;97.34;100941.06;107657;1250;97831;-64
2023/04/05 00:31:24;;;;;;;1.90;1.80;;;;;;;-0.40;97.44;100935.77;107671;1250;111631;-62
2023/04/05 00:33:53;;;;;;;2.00;1.80;;;;;;;-0.40;97.44;100927.11;107708;1250;109941;-63
2023/04/05 00:36:25;;;;;;;2.40;2.00;;;;;;;-0.38;97.28;100922.98;107666;1251;108502;-63
2023/04/05 00:38:54;;;;;;;2.50;2.20;;;;;;;-0.37;97.27;100924.52;107666;1251;97850;-62
2023/04/05 00:41:23;;;;;;;2.10;1.90;;;;;;;-0.39;97.21;100924.08;107646;1251;98361;-62
2023/04/05 00:43:52;;;;;;;2.10;1.90;;;;;;;-0.42;97.31;100920.33;107678;1250;112606;-65
2023/04/05 00:46:21;;;;;;;3.00;2.10;;;;;;;-0.41;97.22;100923.81;107714;1250;109022;-62
2023/04/05 00:48:50;;;;;;;2.00;1.80;;;;;;;-0.42;97.46;100925.60;107743;1250;107740;-63
2023/04/05 00:51:19;;;;;;;2.40;2.20;;;;;;;-0.42;97.57;100921.23;107708;1250;97679;-63
2023/04/05 00:53:51;;;;;;;2.10;1.90;;;;;;;-0.41;97.39;100919.42;107707;1250;98340;-63
2023/04/05 00:56:21;;;;;;;1.90;1.70;;;;;;;-0.44;97.60;100918.13;107679;1251;111287;-63
2023/04/05 00:58:50;;;;;;;3.00;2.10;;;;;;;-0.45;97.51;100915.52;107769;1250;109908;-62
2023/04/05 01:01:23;;;;;;;1.90;1.50;;;;;;;-0.44;97.62;100913.37;107707;1250;105552;-63
2023/04/05 01:04:01;;;;;;;2.30;1.60;;;;;;;-0.42;97.68;100911.54;107707;1250;97880;-64
2023/04/05 01:06:53;;;;;;;2.50;2.20;;;;;;;-0.41;97.76;100909.89;107689;1250;98436;-64
2023/04/05 01:09:44;;;;;;;1.70;1.40;;;;;;;-0.40;97.72;100910.02;107702;1251;111129;-63
2023/04/05 01:12:17;;;;;;;1.80;1.60;;;;;;;-0.38;97.51;100906.96;107620;1248;109766;-64
2023/04/05 01:14:50;;;;;;;2.60;1.70;;;;;;;-0.39;97.49;100905.23;107746;1251;107467;-63
2023/04/05 01:17:21;;;;;;;2.00;1.80;;;;;;;-0.43;97.61;100902.77;107644;1251;97852;-64
2023/04/05 01:19:57;;;;;;;1.90;1.40;;;;;;;-0.47;97.72;100896.89;107804;1251;98404;-65
2023/04/05 01:23:05;;;;;;;2.90;2.40;;;;;;;-0.45;97.79;100900.18;107678;1250;111294;-62
2023/04/05 01:26:15;;;;;;;2.00;1.90;;;;;;;-0.43;97.76;100901.15;107637;1253;109877;-63
2023/04/05 01:29:18;;;;;;;1.80;1.70;;;;;;;-0.42;97.74;100907.31;107639;1250;108058;-62
2023/04/05 01:32:07;;;;;;;3.00;1.80;;;;;;;-0.43;97.62;100915.80;107633;1250;97843;-64
2023/04/05 01:34:42;;;;;;;3.30;2.10;;;;;;;-0.43;97.31;100914.02;107668;1250;98042;-64
2023/04/05 01:37:14;;;;;;;2.20;2.00;;;;;;;-0.41;97.28;100918.86;107694;1250;111251;-63
2023/04/05 01:39:46;;;;;;;2.40;1.90;;;;;;;-0.40;97.12;100919.17;107730;1250;109586;-64
2023/04/05 01:42:23;;;;;;;2.20;2.00;;;;;;;-0.42;96.82;100920.69;107719;1250;107670;-66
2023/04/05 01:44:53;;;;;;;2.10;2.00;;;;;;;-0.45;96.62;100911.98;107583;1251;98897;-63
2023/04/05 01:47:22;;;;;;;1.70;1.60;;;;;;;-0.45;96.82;100916.38;107702;1250;97814;-63
2023/04/05 01:49:51;;;;;;;1.80;1.70;;;;;;;-0.43;96.62;100917.39;107728;1250;111226;-62
2023/04/05 01:52:21;;;;;;;3.90;1.80;;;;;;;-0.43;96.63;100917.73;107680;1250;109999;-62
2023/04/05 01:54:50;;;;;;;5.10;2.20;;;;;;;-0.43;96.60;100912.98;107661;1250;107990;-63
2023/04/05 01:57:18;;;;;;;3.80;2.50;;;;;;;-0.43;96.49;100918.26;107669;1251;97816;-63
2023/04/05 01:59:47;;;;;;;2.80;2.30;;;;;;;-0.45;96.46;100918.18;107635;1250;97835;-64
2023/04/05 02:02:16;;;;;;;4.40;2.40;;;;;;;-0.45;96.41;100919.20;107711;1250;111082;-64
2023/04/05 02:04:44;;;;;;;2.40;2.20;;;;;;;-0.44;96.56;100917.06;107561;1250;109521;-62
2023/04/05 02:07:12;;;;;;;3.40;2.50;;;;;;;-0.45;96.46;100914.98;107600;1250;107748;-63
2023/04/05 02:09:41;;;;;;;2.50;1.80;;;;;;;-0.44;96.31;100913.02;107677;1250;97832;-64
2023/04/05 02:12:10;;;;;;;3.90;2.70;;;;;;;-0.43;96.44;100911.02;107731;1249;97703;-64
2023/04/05 02:14:38;;;;;;;3.60;2.80;;;;;;;-0.43;96.25;100905.39;107658;1250;112667;-62
2023/04/05 02:17:07;;;;;;;3.90;2.30;;;;;;;-0.45;96.38;100905.81;107601;1250;109559;-62
2023/04/05 02:19:45;;;;;;;2.80;2.50;;;;;;;-0.48;96.47;100905.56;107684;1250;108136;-63
2023/04/05 02:22:13;;;;;;;2.70;2.40;;;;;;;-0.49;96.42;100895.58;107672;1255;98603;-64
2023/04/05 02:24:42;;;;;;;2.60;2.30;;;;;;;-0.49;96.50;100896.80;107686;1250;97700;-64
2023/04/05 02:27:11;;;;;;;3.00;2.20;;;;;;;-0.46;96.50;100893.19;107739;1251;111614;-62
2023/04/05 02:29:40;;;;;;;2.90;2.50;;;;;;;-0.44;96.32;100893.61;107767;1250;110071;-64
2023/04/05 02:32:08;;;;;;;3.00;2.70;;;;;;;-0.43;96.20;100893.58;107624;1250;108867;-63
2023/04/05 02:34:40;;;;;;;3.90;2.90;;;;;;;-0.44;96.18;100895.55;107674;1251;97802;-63
2023/04/05 02:37:08;;;;;;;4.00;2.60;;;;;;;-0.44;96.23;100894.31;107699;1251;97834;-63
2023/04/05 02:39:36;;;;;;;5.10;3.20;;;;;;;-0.43;95.99;100895.36;107660;1251;111398;-65
2023/04/05 02:42:05;;;;;;;5.50;3.20;;;;;;;-0.42;95.81;100895.13;107705;1251;109157;-63
2023/04/05 02:44:33;;;;;;;6.60;4.00;;;;;;;-0.44;95.68;100908.77;107723;1253;108155;-62
2023/04/05 02:47:03;;;;;;;4.20;3.40;;;;;;;-0.44;95.90;100902.77;107698;1250;97800;-63
2023/04/05 02:49:32;;;;;;;3.70;2.80;;;;;;;-0.46;95.95;100901.27;107679;1251;97723;-64
2023/04/05 02:52:02;;;;;;;3.00;2.70;;;;;;;-0.51;96.11;100897.08;107649;1253;112007;-62
2023/04/05 02:54:31;;;;;;;5.60;3.50;;;;;;;-0.51;96.28;100891.45;107617;1250;108689;-63
2023/04/05 02:57:02;;;;;;;4.70;2.90;;;;;;;-0.48;96.22;100890.78;107680;1250;108120;-64
2023/04/05 02:59:38;;;;;;;3.10;2.80;;;;;;;-0.47;96.27;100888.99;107594;1250;97794;-64
2023/04/05 03:02:08;;;;;;;8.70;3.00;;;;;;;-0.48;96.12;100889.72;107704;1250;97848;-63
2023/04/05 03:04:37;;;;;;;3.50;2.60;;;;;;;-0.47;96.31;100891.98;107694;1250;111218;-63
2023/04/05 03:07:06;;;;;;;6.10;3.40;;;;;;;-0.46;95.93;100898.45;107572;1250;109718;-62
2023/04/05 03:09:37;;;;;;;3.60;2.30;;;;;;;-0.45;95.93;100903.75;107548;1250;108505;-63
2023/04/05 03:12:08;;;;;;;5.50;3.30;;;;;;;-0.45;95.88;100902.64;107562;1250;97832;-65
2023/04/05 03:14:39;;;;;;;4.40;3.00;;;;;;;-0.48;95.98;100901.17;107629;1250;98350;-64
2023/04/05 03:17:10;;;;;;;4.20;3.20;;;;;;;-0.49;96.16;100902.08;107691;1250;111705;-63
2023/04/05 03:19:41;;;;;;;5.10;3.00;;;;;;;-0.46;96.38;100901.63;107766;1250;109567;-62
2023/04/05 03:22:14;;;;;;;4.90;3.60;;;;;;;-0.45;96.30;100904.75;107547;1251;107513;-63
2023/04/05 03:24:43;;;;;;;4.60;2.90;;;;;;;-0.43;95.99;100902.93;107554;1250;97835;-63
2023/04/05 03:27:13;;;;;;;3.10;2.80;;;;;;;-0.40;96.03;100893.30;107546;1250;97701;-63
2023/04/05 03:29:56;;;;;;;3.80;3.30;;;;;;;-0.42;95.99;100892.30;107739;1251;112948;-63
2023/04/05 03:32:25;;;;;;;4.20;3.00;;;;;;;-0.44;95.94;100895.57;107708;1249;110450;-64
2023/04/05 03:35:00;;;;;;;6.90;3.40;;;;;;;-0.44;95.89;100894.88;107704;1251;108761;-63
2023/04/05 03:37:30;;;;;;;4.50;3.40;;;;;;;-0.44;95.87;100894.85;107652;1251;97878;-64
2023/04/05 03:40:02;;;;;;;6.10;4.20;;;;;;;-0.47;95.79;100897.79;107702;1250;97756;-63
2023/04/05 03:42:35;;;;;;;5.90;3.60;;;;;;;-0.47;95.85;100902.55;107708;1250;112539;-62
2023/04/05 03:45:05;;;;;;;4.70;3.30;;;;;;;-0.47;95.69;100906.27;107518;1250;109581;-63
2023/04/05 03:47:34;;;;;;;5.10;3.60;;;;;;;-0.44;95.74;100908.60;107698;1256;107160;-64
2023/04/05 03:50:05;;;;;;;7.30;4.80;;;;;;;-0.42;95.54;100907.80;107670;1250;97816;-64
2023/04/05 03:52:34;;;;;;;5.40;3.30;;;;;;;-0.41;95.55;100907.58;107726;1250;97755;-63
2023/04/05 03:55:03;;;;;;;6.00;4.10;;;;;;;-0.41;95.43;100913.22;107563;1254;111255;-65
2023/04/05 03:57:33;;;;;;;5.80;3.50;;;;;;;-0.43;95.09;100916.13;107687;1250;109010;-62
2023/04/05 04:00:13;;;;;;;7.40;4.40;;;;;;;-0.42;95.29;100916.10;107505;1250;108082;-64
2023/04/05 04:02:46;;;;;;;8.00;5.30;;;;;;;-0.41;95.23;100918.89;107664;1250;97820;-63
2023/04/05 04:05:20;;;;;;;7.00;4.40;;;;;;;-0.41;95.05;100909.73;107593;1254;98382;-64
2023/04/05 04:07:53;;;;;;;4.90;4.20;;;;;;;-0.43;94.85;100902.23;107647;1251;112224;-64
2023/04/05 04:10:23;;;;;;;4.30;3.40;;;;;;;-0.43;94.76;100902.77;107627;1250;109261;-62
2023/04/05 04:12:54;;;;;;;5.70;3.90;;;;;;;-0.44;94.73;100899.98;107694;1248;107614;-64
2023/04/05 04:15:28;;;;;;;;;;;;;;;-0.44;94.65;100898.54;107719;1250;97929;-64
2023/04/05 04:18:14;;;;;;;6.90;4.00;;;;;;;-0.46;94.60;100893.86;107656;1250;98347;-62
2023/04/05 04:21:06;;;;;;;6.80;4.10;;;;;;;-0.46;94.68;100889.48;107661;1249;111429;-63
2023/04/05 04:23:54;;;;;;;11.60;4.00;;;;;;;-0.46;94.67;100882.95;107401;1251;109555;-63
2023/04/05 04:26:46;;;;;;;4.80;3.90;;;;;;;-0.48;94.50;100888.13;107641;1251;107593;-64
2023/04/05 04:29:37;;;;;;;5.10;3.80;;;;;;;-0.48;94.62;100888.30;107564;1250;97802;-63
2023/04/05 04:32:50;;;;;;;6.00;4.10;;;;;;;-0.44;94.88;100886.59;107680;1251;97694;-63
2023/04/05 04:35:28;;;;;;;4.60;3.90;;;;;;;-0.39;94.62;100886.39;107666;1251;111764;-63
2023/04/05 04:38:20;;;;;;;4.50;3.90;;;;;;;-0.38;94.34;100886.84;107586;1251;109323;-65
2023/04/05 04:41:18;;;;;;;5.30;4.10;;;;;;;-0.36;94.08;100892.59;107207;1260;108365;-64
2023/04/05 04:43:57;;;;;;;4.90;3.90;;;;;;;-0.34;94.25;100897.60;107657;1250;97975;-63
2023/04/05 04:46:46;;;;;;;8.30;5.50;;;;;;;-0.29;93.90;100905.90;107597;1251;97768;-65
2023/04/05 04:49:20;;;;;;;4.30;3.40;;;;;;;-0.27;93.84;100910.19;107635;1253;111801;-64
2023/04/05 04:51:48;;;;;;;8.10;4.90;;;;;;;-0.23;93.55;100902.27;107642;1251;109617;-65
2023/04/05 04:54:19;;;;;;;7.10;4.80;;;;;;;-0.19;93.49;100900.71;107652;1255;107721;-63
2023/04/05 04:56:48;;;;;;;5.60;4.00;;;;;;;-0.17;93.25;100905.05;107540;1250;97886;-64
2023/04/05 04:59:16;;;;;;;7.50;5.40;;;;;;;-0.17;93.22;100906.42;107670;1250;97911;-64
2023/04/05 05:01:44;;;;;;;6.00;3.90;;;;;;;-0.15;92.76;100904.95;107531;1250;112040;-63
2023/04/05 05:04:13;;;;;;;7.00;4.80;;;;;;;-0.14;92.39;100909.30;107748;1250;109102;-66
2023/04/05 05:06:42;;;;;;;4.70;4.10;;;;;;;-0.16;92.40;100907.10;107644;1253;107637;-62
2023/04/05 05:09:10;;;;;;;6.70;4.30;;;;;;;-0.16;92.44;100899.16;107613;1251;97898;-63
2023/04/05 05:11:57;;;;;;;4.70;3.90;;;;;;;-0.17;92.54;100900.46;107714;1253;97813;-64
2023/04/05 05:14:26;;;;;;;6.40;4.80;;;;;;;-0.18;92.64;100906.31;107661;1251;112450;-64
2023/04/05 05:16:57;;;;;;;5.60;4.40;;;;;;;-0.18;92.29;100909.13;107759;1253;110673;-65
2023/04/05 05:19:30;;;;;;;5.30;4.50;;;;;;;-0.18;92.37;100911.42;107709;1248;108596;-64
2023/04/05 05:21:59;;;;;;;6.00;4.70;;;;;;;-0.17;92.20;100912.75;107750;1250;97938;-65
2023/04/05 05:24:28;;;;;;;26.70;16.60;;;;;;;-0.15;92.49;100914.84;107761;1250;97772;-64
2023/04/05 05:26:56;;;;;;;7.40;5.20;;;;;;;-0.12;92.62;100915.57;107566;1253;111493;-64
2023/04/05 05:29:25;;;;;;;7.60;5.40;;;;;;;-0.11;92.18;100911.84;107556;1251;109172;-64
2023/04/05 05:31:54;;;;;;;5.00;4.30;;;;;;;-0.09;92.12;100913.70;107597;1250;107673;-63
2023/04/05 05:34:23;;;;;;;5.00;4.10;;;;;;;-0.09;91.69;100914.03;107765;1251;97819;-63
2023/04/05 05:36:57;;;;;;;7.10;4.40;;;;;;;-0.11;91.66;100913.40;107695;1253;98489;-63
2023/04/05 05:39:25;;;;;;;5.50;4.00;;;;;;;-0.13;91.49;100914.92;107613;1251;111523;-64
2023/04/05 05:41:54;;;;;;;7.70;4.60;;;;;;;-0.14;91.63;100916.05;107707;1250;109102;-63
2023/04/05 05:44:23;;;;;;;6.50;4.50;;;;;;;-0.14;91.68;100913.55;107649;1250;108056;-63
2023/04/05 05:46:52;;;;;;;4.90;4.10;;;;;;;-0.10;91.86;100913.59;107671;1250;97685;-63
2023/04/05 05:49:22;;;;;;;6.50;4.40;;;;;;;-0.10;91.83;100912.52;107732;1250;98364;-64
2023/04/05 05:51:55;;;;;;;5.00;3.80;;;;;;;-0.06;91.45;100911.62;107619;1250;111769;-64
2023/04/05 05:54:25;;;;;;;6.80;4.70;;;;;;;-0.11;91.09;100918.20;107745;1251;109262;-63
2023/04/05 05:56:53;;;;;;;5.90;4.30;;;;;;;-0.13;91.32;100914.74;107631;1251;108338;-63
2023/04/05 05:59:22;;;;;;;5.90;4.60;;;;;;;-0.12;91.37;100921.20;107662;1252;97811;-65
2023/04/05 06:01:51;;;;;;;5.40;4.50;;;;;;;-0.11;91.13;100923.64;107553;1250;97801;-65
2023/04/05 06:04:19;;;;;;;8.30;4.80;;;;;;;-0.10;90.95;100923.79;107571;1250;111233;-63
2023/04/05 06:06:48;;;;;;;6.60;4.50;;;;;;;-0.09;90.91;100928.31;107610;1250;109699;-64
2023/04/05 06:09:16;;;;;;;6.90;4.50;;;;;;;-0.09;90.73;100919.00;107562;1250;108258;-64
2023/04/05 06:11:45;;;;;;;7.30;4.70;;;;;;;-0.09;90.95;100923.92;107585;1250;97822;-64
2023/04/05 06:14:24;;;;;;;5.90;4.60;;;;;;;-0.06;90.75;100919.91;107657;1253;97714;-65
2023/04/05 06:16:52;;;;;;;4.50;4.10;;;;;;;-0.03;90.52;100921.90;107695;1251;110988;-63
2023/04/05 06:19:21;;;;;;;4.10;3.60;;;;;;;-0.05;90.27;100922.15;107817;1248;109518;-63
2023/04/05 06:21:50;;;;;;;5.50;4.40;;;;;;;-0.05;90.37;100921.61;107728;1251;108734;-64
2023/04/05 06:24:18;;;;;;;6.70;4.60;;;;;;;0.01;90.37;100922.09;107648;1253;97832;-64
2023/04/05 06:26:46;;;;;;;4.90;4.10;;;;;;;0.04;90.18;100930.97;107647;1256;97910;-64
2023/04/05 06:29:15;;;;;;;5.70;4.20;;;;;;;0.03;89.88;100926.61;107693;1251;112149;-64
2023/04/05 06:31:45;;;;;;;6.80;4.80;;;;;;;0.02;89.86;100928.05;107589;1250;109190;-63
2023/04/05 06:34:14;;;;;;;6.20;4.60;;;;;;;0.03;89.87;100921.67;107667;1251;107568;-65
2023/04/05 06:36:42;;;;;;;4.30;3.40;;;;;;;0.05;89.96;100926.16;107558;1250;97816;-63
2023/04/05 06:39:11;;;;;;;8.50;4.50;;;;;;;0.06;89.84;100932.48;107558;1249;97835;-64
2023/04/05 06:41:39;;;;;;;6.20;4.20;;;;;;;0.07;89.56;100928.71;107744;1255;111683;-64
2023/04/05 06:44:08;;;;;;;5.70;4.30;;;;;;;0.07;89.96;100931.55;107687;1251;108511;-65
2023/04/05 06:46:37;;;;;;;8.10;4.60;;;;;;;0.08;90.09;100933.27;107720;1250;107746;-65
2023/04/05 06:49:06;;;;;;;6.00;4.10;;;;;;;0.10;90.43;100930.55;107651;1251;97704;-65
2023/04/05 06:51:34;;;;;;;4.60;4.10;;;;;;;0.10;89.70;100930.86;107580;1251;97697;-63
2023/04/05 06:54:03;;;;;;;8.60;3.80;;;;;;;0.14;89.76;100929.83;107600;1253;110040;-63
2023/04/05 06:56:31;;;;;;;9.70;4.20;;;;;;;0.13;89.24;100928.13;107558;1256;109670;-63
2023/04/05 06:59:01;;;;;;;6.10;4.10;;;;;;;0.11;89.24;100932.95;107610;1252;108866;-64
2023/04/05 07:01:29;;;;;;;7.90;4.40;;;;;;;0.16;88.96;100933.48;107620;1253;97861;-63
2023/04/05 07:03:58;;;;;;;7.30;4.20;;;;;;;0.15;88.75;100928.55;107691;1252;97739;-64
2023/04/05 07:06:26;;;;;;;8.00;3.80;;;;;;;0.18;88.97;100932.52;107643;1254;111703;-64
2023/04/05 07:08:54;;;;;;;5.50;4.20;;;;;;;0.20;88.83;100933.30;107697;1251;109238;-62
2023/04/05 07:11:23;;;;;;;7.40;4.90;;;;;;;0.20;88.57;100929.59;107659;1251;108141;-63
2023/04/05 07:13:52;;;;;;;6.30;4.00;;;;;;;0.22;88.71;100925.10;107701;1250;97943;-63
2023/04/05 07:16:21;;;;;;;7.60;4.40;;;;;;;0.25;88.78;100925.84;107627;1254;98344;-64
2023/04/05 07:18:51;;;;;;;7.70;4.80;;;;;;;0.23;88.30;100928.91;107776;1248;112312;-64
2023/04/05 07:21:19;;;;;;;6.00;4.80;;;;;;;0.21;88.51;100927.27;107811;1251;109969;-65
2023/04/05 07:23:48;;;;;;;7.00;4.40;;;;;;;0.16;88.22;100930.09;107669;1252;107671;-62
2023/04/05 07:26:16;;;;;;;9.40;4.90;;;;;;;0.13;88.53;100935.36;107673;1250;98275;-63
2023/04/05 07:28:45;;;;;;;5.00;4.20;;;;;;;0.11;88.61;100936.82;107564;1250;97833;-64
2023/04/05 07:31:15;;;;;;;7.70;4.50;;;;;;;0.11;88.90;100935.41;107649;1250;111159;-64
2023/04/05 07:33:44;;;;;;;9.40;4.10;;;;;;;0.06;88.74;100943.20;107661;1250;109564;-64
2023/04/05 07:36:12;;;;;;;5.90;4.60;;;;;;;0.02;88.91;100946.56;107724;1250;107600;-65
2023/04/05 07:38:42;;;;;;;6.40;4.60;;;;;;;0.02;89.12;100950.11;107651;1250;98451;-64
2023/04/05 07:41:10;;;;;;;7.30;5.20;;;;;;;0.07;89.41;100942.81;107544;1250;97839;-65
2023/04/05 07:43:39;;;;;;;7.00;4.50;;;;;;;0.11;89.38;100949.71;107677;1250;111393;-69
2023/04/05 07:46:08;;;;;;;8.00;5.90;;;;;;;0.11;89.15;100950.43;107643;1251;109066;-65
2023/04/05 07:48:37;;;;;;;9.00;6.20;;;;;;;0.10;89.03;100947.11;107558;1251;107998;-64
2023/04/05 07:51:08;;;;;;;10.30;6.10;;;;;;;0.10;89.21;100946.95;107643;1251;98614;-63
2023/04/05 07:53:37;;;;;;;7.40;5.40;;;;;;;0.11;89.04;100951.15;107524;1250;98369;-64
2023/04/05 07:56:08;;;;;;;7.80;5.40;;;;;;;0.09;88.91;100949.97;107582;1251;111884;-64
2023/04/05 07:58:40;;;;;;;10.70;5.40;;;;;;;0.06;88.93;100951.70;106861;1251;1088826;-64
2023/04/05 08:01:09;;;;;;;7.80;5.00;;;;;;;0.06;89.00;100949.06;107639;1254;107799;-64
2023/04/05 08:03:38;;;;;;;10.00;5.90;;;;;;;0.06;89.00;100949.38;107621;1253;97836;-65
2023/04/05 08:06:17;;;;;;;8.90;5.80;;;;;;;0.06;89.00;100950.29;107656;1250;97862;-65
2023/04/05 08:08:46;;;;;;;7.40;5.20;;;;;;;0.06;89.22;100950.44;107623;1250;112234;-66
2023/04/05 08:11:15;;;;;;;8.00;5.90;;;;;;;0.07;89.05;100950.05;107566;1250;109908;-64
2023/04/05 08:13:43;;;;;;;9.10;5.80;;;;;;;0.07;89.31;100951.80;107795;1253;108034;-64
2023/04/05 08:16:12;;;;;;;9.00;5.90;;;;;;;0.08;89.69;100944.38;107711;1250;98405;-64
2023/04/05 08:18:41;;;;;;;6.50;5.30;;;;;;;0.13;89.49;100953.00;107741;1248;97711;-65
2023/04/05 08:21:10;;;;;;;8.30;5.50;;;;;;;0.10;88.70;100954.68;107611;1251;110231;-64
2023/04/05 08:23:38;;;;;;;9.70;6.10;;;;;;;0.06;88.81;100952.41;107641;1251;109577;-64
2023/04/05 08:26:07;;;;;;;14.90;5.90;;;;;;;0.10;89.23;100955.77;107664;1254;108268;-64
2023/04/05 08:28:35;;;;;;;9.00;5.90;;;;;;;0.14;89.14;100955.05;107510;1250;97698;-65
2023/04/05 08:31:04;;;;;;;7.90;5.30;;;;;;;0.17;88.96;100958.80;107566;1253;97837;-63
2023/04/05 08:33:33;;;;;;;10.20;5.20;;;;;;;0.21;88.95;100957.42;107533;1250;111578;-63
2023/04/05 08:36:06;;;;;;;9.20;5.50;;;;;;;0.20;88.50;100960.45;107570;1253;109187;-65
2023/04/05 08:38:35;;;;;;;9.40;5.50;;;;;;;0.22;87.99;100962.51;107571;1253;107793;-63
2023/04/05 08:41:15;;;;;;;7.90;5.10;;;;;;;0.24;88.21;100964.17;107674;1251;97813;-63
2023/04/05 08:44:01;;;;;;;9.00;5.50;;;;;;;0.25;88.20;100961.98;107542;1250;97688;-62
2023/04/05 08:46:33;;;;;;;7.50;5.40;;;;;;;0.24;87.84;100957.64;107551;1250;111327;-64
2023/04/05 08:49:06;;;;;;;8.10;5.40;;;;;;;0.23;88.19;100959.98;107547;1250;108713;-64
2023/04/05 08:51:38;;;;;;;7.30;5.60;;;;;;;0.23;88.05;100956.96;107545;1250;107609;-64
2023/04/05 08:54:07;;;;;;;8.00;5.40;;;;;;;0.28;87.96;100961.38;107677;1251;97842;-63
2023/04/05 08:56:37;;;;;;;11.40;4.70;;;;;;;0.32;88.06;100961.70;107542;1250;97818;-63
2023/04/05 08:59:08;;;;;;;10.40;5.90;;;;;;;0.27;87.63;100962.45;107586;1250;111389;-64
2023/04/05 09:01:44;;;;;;;10.90;5.70;;;;;;;0.27;87.85;100967.02;107666;1253;110108;-64
2023/04/05 09:04:23;;;;;;;7.40;5.50;;;;;;;0.27;87.46;100961.58;107642;1253;107716;-63
2023/04/05 09:06:54;;;;;;;7.10;5.50;;;;;;;0.25;87.51;100967.27;107624;1253;97807;-63
2023/04/05 09:09:24;;;;;;;5.90;4.50;;;;;;;0.26;87.22;100967.80;107667;1253;97810;-63
2023/04/05 09:11:52;;;;;;;7.70;4.90;;;;;;;0.26;87.30;100967.95;107634;1250;111285;-64
2023/04/05 09:14:22;;;;;;;5.20;4.00;;;;;;;0.27;87.23;100966.35;107621;1248;109555;-64
2023/04/05 09:16:51;;;;;;;9.30;4.70;;;;;;;0.23;86.99;100971.43;107789;1253;107151;-64
2023/04/05 09:19:19;;;;;;;5.50;4.10;;;;;;;0.27;87.33;100964.05;107702;1249;97866;-66
2023/04/05 09:22:02;;;;;;;10.80;5.30;;;;;;;0.27;86.91;100967.21;107622;1250;97817;-65
2023/04/05 09:24:40;;;;;;;6.00;4.70;;;;;;;0.29;87.10;100964.11;107614;1251;112128;-65
2023/04/05 09:27:11;;;;;;;8.60;4.70;;;;;;;0.37;87.19;100960.27;107707;1251;109056;-64
2023/04/05 09:29:42;;;;;;;7.80;4.00;;;;;;;0.37;86.61;100957.80;107581;1251;107734;-64
2023/04/05 09:32:11;;;;;;;8.70;5.80;;;;;;;0.33;86.72;100961.33;107597;1251;97828;-64
2023/04/05 09:34:41;;;;;;;8.60;5.30;;;;;;;0.30;86.59;100957.02;107576;1251;97695;-65
2023/04/05 09:37:20;;;;;;;7.60;4.40;;;;;;;0.31;87.16;100955.23;107646;1250;111313;-66
2023/04/05 09:39:50;;;;;;;9.40;4.70;;;;;;;0.32;86.90;100961.89;107792;1256;109765;-65
2023/04/05 09:42:21;;;;;;;7.10;4.70;;;;;;;0.29;86.75;100959.54;107682;1250;107387;-64
2023/04/05 09:44:56;;;;;;;7.00;5.10;;;;;;;0.29;87.13;100957.95;107618;1252;97821;-64
2023/04/05 09:47:30;;;;;;;4.60;4.10;;;;;;;0.39;87.39;100946.95;107654;1254;97706;-64
2023/04/05 09:50:16;;;;;;;9.90;5.10;;;;;;;0.47;86.95;100950.66;107432;1254;110808;-65
2023/04/05 09:52:45;;;;;;;6.40;4.50;;;;;;;0.59;87.30;100953.14;107598;1251;109962;-63
2023/04/05 09:55:24;;;;;;;8.40;4.70;;;;;;;0.64;86.62;100950.80;107587;1256;107972;-65
2023/04/05 09:57:52;;;;;;;10.10;4.40;;;;;;;0.66;86.53;100949.30;107586;1250;97879;-64
2023/04/05 10:00:22;;;;;;;8.20;5.10;;;;;;;0.72;86.49;100947.64;107568;1250;97924;-65
2023/04/05 10:02:55;;;;;;;6.00;4.60;;;;;;;0.79;86.43;100948.05;107585;1251;110903;-64
2023/04/05 10:05:28;;;;;;;9.60;4.70;;;;;;;0.76;85.96;100948.48;107692;1253;107298;-66
2023/04/05 10:07:58;;;;;;;8.00;5.20;;;;;;;0.78;86.01;100952.11;107651;1251;108729;-66
2023/04/05 10:10:27;;;;;;;7.30;4.50;;;;;;;0.81;85.92;100950.57;107501;1251;97803;-65
2023/04/05 10:12:56;;;;;;;7.40;5.00;;;;;;;0.79;85.69;100946.97;107684;1253;97799;-64
2023/04/05 10:15:25;;;;;;;7.10;4.60;;;;;;;0.75;85.76;100951.18;107661;1256;111289;-64
2023/04/05 10:18:09;;;;;;;7.90;4.60;;;;;;;0.78;85.65;100951.80;107649;1251;109197;-64
2023/04/05 10:20:46;;;;;;;8.10;5.10;;;;;;;0.83;85.60;100952.98;107917;1248;107622;-63
2023/04/05 10:23:29;;;;;;;5.90;4.90;;;;;;;0.81;85.40;100953.59;107699;1250;97925;-65
2023/04/05 10:26:18;;;;;;;8.80;6.40;;;;;;;0.84;85.56;100949.23;107500;1250;97829;-64
2023/04/05 10:28:55;;;;;;;10.60;6.00;;;;;;;0.88;85.41;100946.74;107689;1256;111244;-64
2023/04/05 10:31:45;;;;;;;9.70;5.80;;;;;;;0.85;85.46;100947.08;107638;1254;108997;-66
2023/04/05 10:34:42;;;;;;;10.00;5.60;;;;;;;0.86;85.36;100947.35;107587;1253;106554;-64
2023/04/05 10:37:33;;;;;;;7.10;5.30;;;;;;;0.91;85.14;100946.43;107534;1254;97809;-65
2023/04/05 10:40:03;;;;;;;6.30;4.90;;;;;;;0.88;84.86;100943.23;107523;1251;98344;-66
2023/04/05 10:42:42;;;;;;;8.40;5.40;;;;;;;0.95;84.98;100943.24;107659;1256;111234;-65
2023/04/05 10:45:18;;;;;;;5.80;4.20;;;;;;;0.99;85.12;100942.00;107708;1255;109856;-64
2023/04/05 10:48:01;;;;;;;5.70;3.70;;;;;;;1.07;84.91;100939.18;107685;1253;108328;-65
2023/04/05 10:50:31;;;;;;;6.80;5.00;;;;;;;0.95;84.20;100941.65;107665;1256;97867;-65
2023/04/05 10:53:00;;;;;;;8.80;5.20;;;;;;;0.86;84.47;100944.36;107692;1255;97909;-64
2023/04/05 10:55:30;;;;;;;10.00;5.60;;;;;;;0.78;84.88;100945.80;107681;1251;111674;-65
2023/04/05 10:57:59;;;;;;;7.00;4.90;;;;;;;0.74;85.62;100951.05;107674;1251;109829;-65
2023/04/05 11:00:28;;;;;;;6.00;4.50;;;;;;;0.76;85.71;100945.34;107781;1251;108499;-63
2023/04/05 11:02:56;;;;;;;7.50;5.00;;;;;;;0.75;85.65;100949.08;107603;1251;97805;-66
2023/04/05 11:05:33;;;;;;;6.60;4.50;;;;;;;0.78;85.48;100948.40;107689;1251;97851;-66
2023/04/05 11:08:11;;;;;;;7.30;5.00;;;;;;;0.84;85.52;100950.96;107620;1251;111252;-64
2023/04/05 11:10:40;;;;;;;7.40;4.80;;;;;;;0.80;85.29;100954.67;107583;1251;109859;-66
2023/04/05 11:13:09;;;;;;;9.50;5.20;;;;;;;0.71;85.56;100954.23;107541;1252;108724;-64
2023/04/05 11:15:38;;;;;;;6.70;4.70;;;;;;;0.62;85.87;100951.59;107541;1253;97832;-65
2023/04/05 11:18:10;;;;;;;5.60;4.60;;;;;;;0.58;86.36;100955.99;107672;1253;97816;-65
2023/04/05 11:20:41;;;;;;;6.20;4.30;;;;;;;0.57;86.58;100957.48;107953;1251;112351;-65
2023/04/05 11:23:12;;;;;;;4.60;3.90;;;;;;;0.52;86.77;100954.34;107736;1250;109152;-64
2023/04/05 11:25:58;;;;;;;9.10;4.90;;;;;;;0.48;86.64;100944.98;107536;1251;107248;-65
2023/04/05 11:28:38;;;;;;;9.00;4.70;;;;;;;0.52;86.96;100954.85;107414;1251;97884;-64
2023/04/05 11:31:16;;;;;;;8.40;5.40;;;;;;;0.62;87.09;100954.07;107707;1255;98382;-65
2023/04/05 11:33:59;;;;;;;7.60;4.80;;;;;;;0.65;87.17;100954.99;107687;1256;111216;-66
2023/04/05 11:36:47;;;;;;;6.50;4.50;;;;;;;0.72;87.18;100952.58;107584;1256;108880;-64
2023/04/05 11:39:20;;;;;;;5.30;4.40;;;;;;;0.77;86.97;100946.72;107599;1251;107642;-64
2023/04/05 11:41:55;;;;;;;;;;;;;;;0.80;86.73;100949.92;107670;1251;97811;-64